createdAt,value
2019-03-08T00:00:01.738Z,6.14
2019-03-08T00:02:33.808Z,6.09
2019-03-08T00:05:04.243Z,5.94
2019-03-08T00:07:34.431Z,5.81
2019-03-08T00:10:04.738Z,5.73
2019-03-08T00:12:36.348Z,5.65
2019-03-08T00:15:06.857Z,5.66
2019-03-08T00:17:37.002Z,5.68
2019-03-08T00:20:08.519Z,5.75
2019-03-08T00:22:39.251Z,5.78
2019-03-08T00:25:09.616Z,5.93
2019-03-08T00:27:39.777Z,6.12
2019-03-08T00:30:09.989Z,6.19
2019-03-08T00:32:40.142Z,6.18
2019-03-08T00:35:10.349Z,6.25
2019-03-08T00:37:42.578Z,6.34
2019-03-08T00:40:12.722Z,6.37
2019-03-08T00:42:42.886Z,6.55
2019-03-08T00:45:18.825Z,6.54
2019-03-08T00:47:49.109Z,6.57
2019-03-08T00:50:19.311Z,6.69
2019-03-08T00:52:52.058Z,6.87
2019-03-08T00:55:22.527Z,6.86
2019-03-08T00:57:52.871Z,6.88
2019-03-08T01:00:25.869Z,6.95
2019-03-08T01:02:56.084Z,7.07
2019-03-08T01:05:26.169Z,7.10
2019-03-08T01:07:56.727Z,7.12
2019-03-08T01:10:28.307Z,7.17
2019-03-08T01:13:01.595Z,7.28
2019-03-08T01:15:35.755Z,7.33
2019-03-08T01:18:06.201Z,7.45
2019-03-08T01:20:36.407Z,7.38
2019-03-08T01:23:07.146Z,7.45
2019-03-08T01:25:37.543Z,7.43
2019-03-08T01:28:12.522Z,7.48
2019-03-08T01:30:43.646Z,7.43
2019-03-08T01:33:15.922Z,7.50
2019-03-08T01:35:46.078Z,7.52
2019-03-08T01:38:16.248Z,7.49
2019-03-08T01:40:46.486Z,7.44
2019-03-08T01:43:19.676Z,7.41
2019-03-08T01:45:50.007Z,7.41
2019-03-08T01:48:20.200Z,7.44
2019-03-08T01:50:50.303Z,7.47
2019-03-08T01:53:20.608Z,7.49
2019-03-08T01:55:51.127Z,7.46
2019-03-08T01:58:23.718Z,7.45
2019-03-08T02:00:53.957Z,7.35
2019-03-08T02:03:24.242Z,7.28
2019-03-08T02:05:54.639Z,7.23
2019-03-08T02:08:24.767Z,7.17
2019-03-08T02:10:54.918Z,7.09
2019-03-08T02:13:25.182Z,7.14
2019-03-08T02:15:55.420Z,7.10
2019-03-08T02:18:25.791Z,7.05
2019-03-08T02:21:06.250Z,7.03
2019-03-08T02:23:27.940Z,7.02
2019-03-08T02:25:58.248Z,7.06
2019-03-08T02:28:28.392Z,7.03
2019-03-08T02:30:58.636Z,6.96
2019-03-08T02:33:28.785Z,6.97
2019-03-08T02:35:59.041Z,6.95
2019-03-08T02:38:31.627Z,6.90
2019-03-08T02:41:02.020Z,6.81
2019-03-08T02:43:34.231Z,6.79
2019-03-08T02:46:06.165Z,6.80
2019-03-08T02:48:36.378Z,6.80
2019-03-08T02:51:08.635Z,6.83
2019-03-08T02:53:40.246Z,6.84
2019-03-08T02:56:12.043Z,6.80
2019-03-08T02:58:42.188Z,6.77
2019-03-08T03:01:12.384Z,6.77
2019-03-08T03:03:42.809Z,6.76
2019-03-08T03:06:12.961Z,6.73
2019-03-08T03:08:44.278Z,6.76
2019-03-08T03:11:14.421Z,6.75
2019-03-08T03:13:44.588Z,6.80
2019-03-08T03:16:14.713Z,6.77
2019-03-08T03:18:47.711Z,6.73
2019-03-08T03:21:18.027Z,6.72
2019-03-08T03:23:48.374Z,6.71
2019-03-08T03:26:18.704Z,6.72
2019-03-08T03:28:48.939Z,6.78
2019-03-08T03:31:19.430Z,6.73
2019-03-08T03:33:49.890Z,6.71
2019-03-08T03:36:20.098Z,6.65
2019-03-08T03:38:50.500Z,6.63
2019-03-08T03:41:21.071Z,6.60
2019-03-08T03:43:51.538Z,6.61
2019-03-08T03:46:22.085Z,6.65
2019-03-08T03:48:52.211Z,6.63
2019-03-08T03:51:26.156Z,6.66
2019-03-08T03:53:57.253Z,6.62
2019-03-08T03:56:27.569Z,6.62
2019-03-08T03:58:57.893Z,6.64
2019-03-08T04:01:35.549Z,6.63
2019-03-08T04:04:06.084Z,6.57
2019-03-08T04:06:36.931Z,6.49
2019-03-08T04:09:15.024Z,6.45
2019-03-08T04:11:45.309Z,6.37
2019-03-08T04:14:15.490Z,6.31
2019-03-08T04:16:46.988Z,6.24
2019-03-08T04:19:17.162Z,6.25
2019-03-08T04:21:47.433Z,6.22
2019-03-08T04:24:19.021Z,6.26
2019-03-08T04:26:49.323Z,6.22
2019-03-08T04:29:19.747Z,6.15
2019-03-08T04:31:50.989Z,6.13
2019-03-08T04:34:21.108Z,6.18
2019-03-08T04:36:51.260Z,6.11
2019-03-08T04:39:21.712Z,6.08
2019-03-08T04:41:53.322Z,6.13
2019-03-08T04:44:23.614Z,6.16
2019-03-08T04:46:54.707Z,6.15
2019-03-08T04:49:25.132Z,6.11
2019-03-08T04:51:56.338Z,6.14
2019-03-08T04:54:26.647Z,6.16
2019-03-08T04:56:56.784Z,6.17
2019-03-08T04:59:26.899Z,6.13
2019-03-08T05:01:57.144Z,6.19
2019-03-08T05:04:27.442Z,6.23
2019-03-08T05:06:58.297Z,6.27
2019-03-08T05:09:28.575Z,6.30
2019-03-08T05:11:58.918Z,6.31
2019-03-08T05:14:30.188Z,6.33
2019-03-08T05:17:00.436Z,6.33
2019-03-08T05:19:31.154Z,6.19
2019-03-08T05:22:01.573Z,6.07
2019-03-08T05:24:32.679Z,6.00
2019-03-08T05:27:03.137Z,5.96
2019-03-08T05:29:35.605Z,5.87
2019-03-08T05:32:06.189Z,5.86
2019-03-08T05:34:39.017Z,5.85
2019-03-08T05:37:09.609Z,5.82
2019-03-08T05:39:41.000Z,5.85
2019-03-08T05:42:11.161Z,5.87
2019-03-08T05:44:41.549Z,5.85
2019-03-08T05:47:11.730Z,5.84
2019-03-08T05:49:41.870Z,5.85
2019-03-08T05:52:12.486Z,5.86
2019-03-08T05:54:42.739Z,5.85
2019-03-08T05:57:13.033Z,5.80
2019-03-08T05:59:46.095Z,5.77
2019-03-08T06:02:19.344Z,5.79
2019-03-08T06:04:49.498Z,5.86
2019-03-08T06:07:19.866Z,5.87
2019-03-08T06:09:50.095Z,5.85
2019-03-08T06:12:20.529Z,5.86
2019-03-08T06:14:53.209Z,5.87
2019-03-08T06:17:23.501Z,5.81
2019-03-08T06:19:53.766Z,5.81
2019-03-08T06:22:26.070Z,5.83
2019-03-08T06:24:56.203Z,5.81
2019-03-08T06:27:26.456Z,5.80
2019-03-08T06:29:56.744Z,5.75
2019-03-08T06:32:30.003Z,5.79
2019-03-08T06:35:00.366Z,5.83
2019-03-08T06:37:31.080Z,5.83
2019-03-08T06:40:01.291Z,5.87
2019-03-08T06:42:31.507Z,5.95
2019-03-08T06:45:01.819Z,6.10
2019-03-08T06:47:32.453Z,6.22
2019-03-08T06:50:03.661Z,6.42
2019-03-08T06:52:33.947Z,6.50
2019-03-08T06:55:04.375Z,6.57
2019-03-08T06:57:39.168Z,6.52
2019-03-08T07:00:25.210Z,6.42
2019-03-08T07:02:58.754Z,6.32
2019-03-08T07:05:31.780Z,6.41
2019-03-08T07:08:05.582Z,6.50
2019-03-08T07:10:35.789Z,6.68
2019-03-08T07:13:06.168Z,6.86
2019-03-08T07:15:36.521Z,7.00
2019-03-08T07:18:12.935Z,7.06
2019-03-08T07:20:49.493Z,7.19
2019-03-08T07:23:39.136Z,7.32
2019-03-08T07:26:40.913Z,7.41
2019-03-08T07:29:16.053Z,7.48
2019-03-08T07:32:04.293Z,7.47
2019-03-08T07:34:52.207Z,7.43
2019-03-08T07:37:40.331Z,7.48
2019-03-08T07:40:29.494Z,7.48
2019-03-08T07:43:27.975Z,7.45
2019-03-08T07:46:16.560Z,7.64
2019-03-08T07:49:08.397Z,7.73
2019-03-08T07:52:00.519Z,7.89
2019-03-08T07:54:55.567Z,8.16
2019-03-08T07:57:58.956Z,8.48
2019-03-08T08:00:48.095Z,8.98
2019-03-08T08:03:32.575Z,9.33
2019-03-08T08:06:11.458Z,9.84
2019-03-08T08:09:00.638Z,10.28
2019-03-08T08:12:00.813Z,10.63
2019-03-08T08:14:50.330Z,10.68
2019-03-08T08:17:48.814Z,10.16
2019-03-08T08:20:43.887Z,10.68
2019-03-08T08:23:39.462Z,10.64
2019-03-08T08:26:26.158Z,10.65
2019-03-08T08:29:10.334Z,10.54
2019-03-08T08:32:08.633Z,10.36
2019-03-08T08:35:04.132Z,10.12
2019-03-08T08:38:02.803Z,9.63
2019-03-08T08:40:52.368Z,9.37
2019-03-08T08:43:31.453Z,9.54
2019-03-08T08:46:32.821Z,9.28
2019-03-08T08:49:17.850Z,9.49
2019-03-08T08:52:10.188Z,9.92
2019-03-08T08:55:02.939Z,10.16
2019-03-08T08:57:51.070Z,10.49
2019-03-08T09:00:42.859Z,10.42
2019-03-08T09:03:44.726Z,10.11
2019-03-08T09:06:32.782Z,9.81
2019-03-08T09:09:24.532Z,10.19
2019-03-08T09:12:12.749Z,10.13
2019-03-08T09:14:57.570Z,10.10
2019-03-08T09:17:38.336Z,10.02
2019-03-08T09:20:39.974Z,10.01
2019-03-08T09:23:23.111Z,10.61
2019-03-08T09:26:09.864Z,11.53
2019-03-08T09:28:51.079Z,12.31
2019-03-08T09:31:41.178Z,13.66
2019-03-08T09:34:30.563Z,14.24
2019-03-08T09:37:26.480Z,13.67
2019-03-08T09:40:18.958Z,12.73
2019-03-08T09:43:15.282Z,12.16
2019-03-08T09:46:05.219Z,13.05
2019-03-08T09:48:48.942Z,12.66
2019-03-08T09:51:47.655Z,13.37
2019-03-08T09:54:25.823Z,14.09
2019-03-08T09:57:17.457Z,16.48
2019-03-08T10:00:16.292Z,18.11
2019-03-08T10:03:11.487Z,18.11
2019-03-08T10:06:03.900Z,16.64
2019-03-08T10:08:52.884Z,15.35
2019-03-08T10:11:30.368Z,17.24
2019-03-08T10:14:33.929Z,17.64
2019-03-08T10:17:23.629Z,19.05
2019-03-08T10:20:22.090Z,17.03
2019-03-08T10:23:19.685Z,14.54
2019-03-08T10:26:09.376Z,12.47
2019-03-08T10:28:57.306Z,11.97
2019-03-08T10:31:35.294Z,14.56
2019-03-08T10:34:23.416Z,14.61
2019-03-08T10:37:20.440Z,14.91
2019-03-08T10:40:10.098Z,17.03
2019-03-08T10:43:03.313Z,19.00
2019-03-08T10:45:44.128Z,20.05
2019-03-08T10:48:25.972Z,18.96
2019-03-08T10:51:18.433Z,16.52
2019-03-08T10:54:24.032Z,15.98
2019-03-08T10:57:13.539Z,15.25
2019-03-08T11:00:02.917Z,16.14
2019-03-08T11:02:53.486Z,14.88
2019-03-08T11:05:35.095Z,14.05
2019-03-08T11:08:29.954Z,17.27
2019-03-08T11:11:24.100Z,18.37
2019-03-08T11:14:20.215Z,19.40
2019-03-08T11:17:07.022Z,19.19
2019-03-08T11:19:55.153Z,18.72
2019-03-08T11:22:35.200Z,20.35
2019-03-08T11:25:24.581Z,20.63
2019-03-08T11:28:23.458Z,21.02
2019-03-08T11:31:16.434Z,21.45
2019-03-08T11:33:57.634Z,21.41
2019-03-08T11:36:39.308Z,19.70
2019-03-08T11:39:46.092Z,16.67
2019-03-08T11:42:36.476Z,16.13
2019-03-08T11:45:16.983Z,14.83
2019-03-08T11:47:56.099Z,14.05
2019-03-08T11:50:54.544Z,13.39
2019-03-08T11:53:59.444Z,15.30
2019-03-08T11:57:03.776Z,18.79
2019-03-08T11:59:52.019Z,18.99
2019-03-08T12:02:39.874Z,16.54
2019-03-08T12:05:41.777Z,16.11
2019-03-08T12:08:39.882Z,18.29
2019-03-08T12:11:30.622Z,19.69
2019-03-08T12:14:29.187Z,20.86
2019-03-08T12:17:18.254Z,18.26
2019-03-08T12:19:56.980Z,19.08
2019-03-08T12:22:46.146Z,17.39
2019-03-08T12:25:37.815Z,17.43
2019-03-08T12:28:30.358Z,15.78
2019-03-08T12:31:19.864Z,14.09
2019-03-08T12:34:08.905Z,14.09
2019-03-08T12:36:57.055Z,13.89
2019-03-08T12:39:39.080Z,13.69
2019-03-08T12:42:46.802Z,13.69
2019-03-08T12:45:34.779Z,13.83
2019-03-08T12:48:42.802Z,13.93
2019-03-08T12:51:41.347Z,13.84
2019-03-08T12:54:29.700Z,13.82
2019-03-08T12:57:12.981Z,15.33
2019-03-08T13:00:02.196Z,15.17
2019-03-08T13:02:42.321Z,14.59
2019-03-08T13:05:34.418Z,13.19
2019-03-08T13:08:25.895Z,12.95
2019-03-08T13:10:58.780Z,13.31
2019-03-08T13:13:29.207Z,12.90
2019-03-08T13:15:59.827Z,13.49
2019-03-08T13:18:30.055Z,13.19
2019-03-08T13:21:00.211Z,13.18
2019-03-08T13:23:31.638Z,12.83
2019-03-08T13:26:02.058Z,14.69
2019-03-08T13:28:32.479Z,17.70
2019-03-08T13:31:02.999Z,17.70
2019-03-08T13:33:34.350Z,15.37
2019-03-08T13:36:04.814Z,16.95
2019-03-08T13:38:35.255Z,18.06
2019-03-08T13:41:05.646Z,17.06
2019-03-08T13:43:35.816Z,18.85
2019-03-08T13:46:06.072Z,18.30
2019-03-08T13:48:36.334Z,19.78
2019-03-08T13:51:06.609Z,19.99
2019-03-08T13:53:37.213Z,19.26
2019-03-08T13:56:07.758Z,18.44
2019-03-08T13:58:37.926Z,19.26
2019-03-08T14:01:08.089Z,20.60
2019-03-08T14:03:38.450Z,19.17
2019-03-08T14:06:11.475Z,18.75
2019-03-08T14:08:44.114Z,18.91
2019-03-08T14:11:14.905Z,18.00
2019-03-08T14:13:45.355Z,17.11
2019-03-08T14:16:17.153Z,15.88
2019-03-08T14:18:47.456Z,15.84
2019-03-08T14:21:17.809Z,16.98
2019-03-08T14:23:48.330Z,17.49
2019-03-08T14:26:18.770Z,16.86
2019-03-08T14:28:49.232Z,17.28
2019-03-08T14:31:45.321Z,18.05
2019-03-08T14:34:17.853Z,19.28
2019-03-08T14:36:49.860Z,19.44
2019-03-08T14:39:20.873Z,18.55
2019-03-08T14:42:03.691Z,17.64
2019-03-08T14:44:45.900Z,16.54
2019-03-08T14:47:29.323Z,15.75
2019-03-08T14:49:59.229Z,16.57
2019-03-08T14:52:30.080Z,15.51
2019-03-08T14:55:00.484Z,14.71
2019-03-08T14:57:30.833Z,14.67
2019-03-08T15:00:02.367Z,14.69
2019-03-08T15:02:32.887Z,14.31
2019-03-08T15:05:10.897Z,14.04
2019-03-08T15:07:37.330Z,13.71
2019-03-08T15:10:09.295Z,13.50
2019-03-08T15:12:48.332Z,13.65
2019-03-08T15:15:12.837Z,13.62
2019-03-08T15:17:44.726Z,13.65
2019-03-08T15:20:16.967Z,13.43
2019-03-08T15:22:48.546Z,13.24
2019-03-08T15:25:20.895Z,12.93
2019-03-08T15:27:54.093Z,12.86
2019-03-08T15:30:25.863Z,12.72
2019-03-08T15:32:56.031Z,12.58
2019-03-08T15:35:28.210Z,12.65
2019-03-08T15:37:58.374Z,12.37
2019-03-08T15:40:33.429Z,12.46
2019-03-08T15:43:04.041Z,12.50
2019-03-08T15:45:34.579Z,12.22
2019-03-08T15:48:04.785Z,12.27
2019-03-08T15:50:35.117Z,12.03
2019-03-08T15:53:07.001Z,11.93
2019-03-08T15:55:37.278Z,11.89
2019-03-08T15:58:07.442Z,11.72
2019-03-08T16:00:37.940Z,11.81
2019-03-08T16:03:08.219Z,11.78
2019-03-08T16:05:38.392Z,11.56
2019-03-08T16:08:11.455Z,11.44
2019-03-08T16:10:41.990Z,11.35
2019-03-08T16:13:12.606Z,11.36
2019-03-08T16:15:43.654Z,11.32
2019-03-08T16:18:14.140Z,11.37
2019-03-08T16:20:44.422Z,11.27
2019-03-08T16:23:14.696Z,11.01
2019-03-08T16:25:53.046Z,10.98
2019-03-08T16:28:23.408Z,11.12
2019-03-08T16:31:00.005Z,10.90
2019-03-08T16:33:41.535Z,10.91
2019-03-08T16:36:29.333Z,10.69
2019-03-08T16:39:06.932Z,10.54
2019-03-08T16:41:45.215Z,10.41
2019-03-08T16:44:34.826Z,10.38
2019-03-08T16:47:13.756Z,10.47
2019-03-08T16:49:53.867Z,10.20
2019-03-08T16:52:46.692Z,10.04
2019-03-08T16:55:36.853Z,10.07
2019-03-08T16:58:41.461Z,10.06
2019-03-08T17:01:38.773Z,9.91
2019-03-08T17:04:34.207Z,9.80
2019-03-08T17:07:23.970Z,9.70
2019-03-08T17:10:13.596Z,9.64
2019-03-08T17:13:06.395Z,9.56
2019-03-08T17:15:58.889Z,9.47
2019-03-08T17:18:51.139Z,9.36
2019-03-08T17:21:46.107Z,9.38
2019-03-08T17:24:25.510Z,9.16
2019-03-08T17:27:17.817Z,8.99
2019-03-08T17:30:10.012Z,8.79
2019-03-08T17:33:07.746Z,8.76
2019-03-08T17:36:12.238Z,8.69
2019-03-08T17:39:01.485Z,8.46
2019-03-08T17:42:01.343Z,8.27
2019-03-08T17:50:59.731Z,7.81
2019-03-08T17:54:01.689Z,7.68
2019-03-08T17:56:47.949Z,7.56
2019-03-08T17:59:46.975Z,7.38
2019-03-08T18:02:32.006Z,7.24
2019-03-08T18:05:23.004Z,7.09
2019-03-08T18:08:21.816Z,7.02
2019-03-08T18:11:16.299Z,6.89
2019-03-08T18:13:55.027Z,6.85
2019-03-08T18:16:44.277Z,6.80
2019-03-08T18:19:42.390Z,6.73
2019-03-08T18:22:21.622Z,6.68
2019-03-08T18:25:26.438Z,6.54
2019-03-08T18:28:14.899Z,6.44
2019-03-08T18:30:54.406Z,6.28
2019-03-08T18:33:43.789Z,6.24
2019-03-08T18:36:34.513Z,6.22
2019-03-08T18:39:10.753Z,6.22
2019-03-08T18:42:00.152Z,6.13
2019-03-08T18:44:52.247Z,5.99
2019-03-08T18:47:50.525Z,5.95
2019-03-08T18:50:43.079Z,5.90
2019-03-08T18:53:35.628Z,5.82
2019-03-08T18:56:22.555Z,5.79
2019-03-08T18:59:12.018Z,5.78
2019-03-08T19:02:10.834Z,5.85
2019-03-08T19:05:06.139Z,5.90
2019-03-08T19:07:54.458Z,5.94
2019-03-08T19:10:50.085Z,5.95
2019-03-08T19:13:35.485Z,5.95
2019-03-08T19:16:29.274Z,5.92
2019-03-08T19:19:13.111Z,5.87
2019-03-08T19:22:26.146Z,5.73
2019-03-08T19:25:14.688Z,5.62
2019-03-08T19:28:04.249Z,5.56
2019-03-08T19:30:59.733Z,5.51
2019-03-08T19:33:52.538Z,5.41
2019-03-08T19:36:46.996Z,5.35
2019-03-08T19:39:36.325Z,5.38
2019-03-08T19:42:25.711Z,5.36
2019-03-08T19:45:05.596Z,5.33
2019-03-08T19:47:55.219Z,5.21
2019-03-08T19:50:39.146Z,5.15
2019-03-08T19:53:20.808Z,5.15
2019-03-08T19:56:01.790Z,5.14
2019-03-08T19:59:09.184Z,5.07
2019-03-08T20:02:09.022Z,5.02
2019-03-08T20:05:01.154Z,4.93
2019-03-08T20:07:49.319Z,4.84
2019-03-08T20:10:37.616Z,4.83
2019-03-08T20:13:30.381Z,4.80
2019-03-08T20:16:25.870Z,4.74
2019-03-08T20:19:21.377Z,4.67
2019-03-08T20:22:03.046Z,4.62
2019-03-08T20:24:59.500Z,4.63
2019-03-08T20:27:48.854Z,4.55
2019-03-08T20:30:59.708Z,4.53
2019-03-08T20:33:45.220Z,4.54
2019-03-08T20:36:39.497Z,4.50
2019-03-08T20:39:27.362Z,4.50
2019-03-08T20:42:24.832Z,4.51
2019-03-08T20:45:15.976Z,4.50
2019-03-08T20:47:46.755Z,4.52
2019-03-08T20:50:20.043Z,4.52
2019-03-08T20:52:50.696Z,4.54
2019-03-08T20:55:20.883Z,4.45
2019-03-08T20:57:51.342Z,4.48
2019-03-08T21:00:23.762Z,4.48
2019-03-08T21:02:54.413Z,4.49
2019-03-08T21:05:25.086Z,4.49
2019-03-08T21:07:56.972Z,4.49
2019-03-08T21:10:27.359Z,4.45
2019-03-08T21:13:00.811Z,4.45
2019-03-08T21:15:31.407Z,4.43
2019-03-08T21:18:01.783Z,4.44
2019-03-08T21:20:32.029Z,4.46
2019-03-08T21:23:02.881Z,4.49
2019-03-08T21:25:33.245Z,4.53
2019-03-08T21:28:03.518Z,4.54
2019-03-08T21:30:33.818Z,4.50
2019-03-08T21:33:04.444Z,4.42
2019-03-08T21:35:35.249Z,4.41
2019-03-08T21:38:05.715Z,4.40
2019-03-08T21:40:36.073Z,4.39
2019-03-08T21:43:09.510Z,4.37
2019-03-08T21:45:39.708Z,4.38
2019-03-08T21:48:09.959Z,4.36
2019-03-08T21:50:40.320Z,4.43
2019-03-08T21:53:11.239Z,4.39
2019-03-08T21:55:41.450Z,4.41
2019-03-08T21:58:12.254Z,4.35
2019-03-08T22:00:42.647Z,4.34
2019-03-08T22:03:12.886Z,4.35
2019-03-08T22:05:43.359Z,4.32
2019-03-08T22:08:17.750Z,4.32
2019-03-08T22:10:53.931Z,4.17
2019-03-08T22:13:24.440Z,4.20
2019-03-08T22:15:57.543Z,4.21
2019-03-08T22:18:28.065Z,4.25
2019-03-08T22:20:58.607Z,4.32
2019-03-08T22:23:28.993Z,4.34
2019-03-08T22:25:59.246Z,4.34
2019-03-08T22:28:29.609Z,4.35
2019-03-08T22:30:59.865Z,4.34
2019-03-08T22:33:30.045Z,4.39
2019-03-08T22:36:00.194Z,4.35
2019-03-08T22:38:30.425Z,4.28
2019-03-08T22:41:00.894Z,4.30
2019-03-08T22:43:31.658Z,4.29
2019-03-08T22:46:02.142Z,4.28
2019-03-08T22:48:32.542Z,4.32
2019-03-08T22:51:04.327Z,4.32
2019-03-08T22:53:34.535Z,4.35
2019-03-08T22:56:06.220Z,4.37
2019-03-08T22:58:37.635Z,4.36
2019-03-08T23:01:12.818Z,4.41
2019-03-08T23:03:43.179Z,4.37
2019-03-08T23:06:16.091Z,4.41
2019-03-08T23:08:46.523Z,4.41
2019-03-08T23:11:17.161Z,4.42
2019-03-08T23:13:47.527Z,4.41
2019-03-08T23:16:17.876Z,4.44
2019-03-08T23:18:48.269Z,4.56
2019-03-08T23:21:18.406Z,4.60
2019-03-08T23:23:48.529Z,4.64
2019-03-08T23:26:18.839Z,4.60
2019-03-08T23:29:07.126Z,4.60
2019-03-08T23:31:41.222Z,4.59
2019-03-08T23:34:15.325Z,4.50
2019-03-08T23:36:45.722Z,4.50
2019-03-08T23:39:16.045Z,4.55
2019-03-08T23:41:46.201Z,4.53
2019-03-08T23:44:16.445Z,4.46
2019-03-08T23:46:46.686Z,4.43
2019-03-08T23:49:17.428Z,4.35
2019-03-08T23:51:48.191Z,4.29
2019-03-08T23:54:18.765Z,4.32
2019-03-08T23:56:51.197Z,4.27
2019-03-08T23:59:21.453Z,4.28
